Time;durP1;ratioP1;P1;durP2;ratioP2;P2;SDS_P1;SDS_P2;PMS_P1;PMS_P2;Temp;Humidity;BMP_temperature;BMP_pressure;BME280_temperature;BME280_humidity;BME280_pressure;Samples;Min_cycle;Max_cycle;Signal;HPM_P1;HPM_P2
2021/04/05 00:00:03;;;;;;;13.32;8.32;;;;;;;3.57;60.67;99569.59;10422273;28;20041;-68
2021/04/05 00:05:28;;;;;;;15.45;8.45;;;;;;;3.58;60.25;99555.72;10422524;28;20049;-67
2021/04/05 00:10:42;;;;;;;13.27;8.10;;;;;;;3.80;59.77;99538.97;10404243;28;20045;-67
2021/04/05 00:15:46;;;;;;;16.65;8.15;;;;;;;3.65;59.86;99533.97;10422299;28;20050;-68
2021/04/05 00:20:55;;;;;;;16.63;7.78;;;;;;;3.21;60.97;99511.09;10424721;28;20064;-67
2021/04/05 00:25:57;;;;;;;10.80;8.80;;;;;;;3.31;61.47;99499.72;10431070;28;20112;-67
2021/04/05 00:30:58;;;;;;;12.15;8.07;;;;;;;3.11;61.59;99493.88;10430010;28;20068;-67
2021/04/05 00:35:59;;;;;;;14.00;8.02;;;;;;;3.14;62.68;99478.25;10411743;28;20041;-67
2021/04/05 00:41:08;;;;;;;13.25;7.97;;;;;;;3.05;62.93;99466.22;10412306;28;20042;-67
2021/04/05 00:46:10;;;;;;;12.18;7.60;;;;;;;2.99;62.61;99451.56;10410857;28;20049;-68
2021/04/05 00:51:14;;;;;;;14.82;8.07;;;;;;;2.59;62.93;99451.09;10411791;28;20042;-67
2021/04/05 00:56:19;;;;;;;10.27;8.07;;;;;;;2.75;63.46;99442.31;10411682;28;20049;-67
2021/04/05 01:01:26;;;;;;;13.10;7.90;;;;;;;2.69;63.04;99425.94;10429361;28;20046;-67
2021/04/05 01:06:30;;;;;;;12.00;8.32;;;;;;;2.55;63.23;99414.81;10427414;28;20045;-69
2021/04/05 01:11:32;;;;;;;13.82;7.72;;;;;;;2.33;64.14;99391.66;10402355;28;20037;-68
2021/04/05 01:16:34;;;;;;;19.40;9.48;;;;;;;2.23;64.29;99380.53;10410403;28;20049;-68
2021/04/05 01:21:37;;;;;;;14.85;9.10;;;;;;;1.88;64.89;99375.59;10426840;28;20042;-68
2021/04/05 01:26:39;;;;;;;15.27;8.45;;;;;;;2.18;65.34;99340.81;10409210;28;20049;-68
2021/04/05 01:31:42;;;;;;;16.67;8.60;;;;;;;2.14;65.16;99330.47;10424823;28;20457;-69
2021/04/05 01:36:43;;;;;;;14.18;8.27;;;;;;;2.27;64.73;99319.97;10427783;28;20546;-68
2021/04/05 01:41:44;;;;;;;16.60;9.68;;;;;;;2.27;64.01;99295.78;10408781;28;20057;-68
2021/04/05 01:46:46;;;;;;;10.50;7.72;;;;;;;2.12;64.61;99304.53;10426552;28;20045;-68
2021/04/05 01:51:48;;;;;;;17.40;9.10;;;;;;;2.09;65.91;99294.22;10426036;28;20044;-68
2021/04/05 01:56:50;;;;;;;17.45;9.27;;;;;;;1.90;65.27;99283.16;10424878;28;20048;-67
2021/04/05 02:01:51;;;;;;;13.18;9.90;;;;;;;2.04;65.88;99272.69;10426433;28;20076;-68
2021/04/05 02:06:53;;;;;;;18.10;8.55;;;;;;;1.88;65.94;99248.63;10424789;28;20041;-67
2021/04/05 02:11:55;;;;;;;20.40;9.70;;;;;;;1.90;65.74;99236.50;10424699;28;20116;-67
2021/04/05 02:16:56;;;;;;;24.45;8.95;;;;;;;2.15;65.05;99221.56;10426632;28;20037;-67
2021/04/05 02:21:58;;;;;;;14.25;9.27;;;;;;;2.60;64.64;99202.88;10408684;28;20434;-67
2021/04/05 02:26:59;;;;;;;11.23;7.97;;;;;;;2.47;64.80;99209.97;10425292;28;20107;-67
2021/04/05 02:32:01;;;;;;;14.02;9.30;;;;;;;2.47;65.35;99181.41;10406805;28;20486;-68
2021/04/05 02:37:03;;;;;;;14.82;8.80;;;;;;;2.64;64.21;99170.84;10406387;28;20049;-68
2021/04/05 02:42:05;;;;;;;13.73;9.00;;;;;;;2.49;64.86;99158.94;10405892;28;20491;-68
2021/04/05 02:47:07;;;;;;;12.55;9.63;;;;;;;2.81;63.86;99129.94;10423578;28;20148;-68
2021/04/05 02:52:08;;;;;;;22.13;8.85;;;;;;;2.80;64.50;99104.88;10422013;28;20037;-67
2021/04/05 02:57:10;;;;;;;15.30;9.15;;;;;;;3.09;64.08;99096.59;10422876;28;20073;-68
2021/04/05 03:02:11;;;;;;;16.02;9.80;;;;;;;3.09;64.06;99078.41;10405391;28;20380;-67
2021/04/05 03:07:13;;;;;;;18.75;9.50;;;;;;;3.23;62.57;99065.19;10422247;28;20114;-68
2021/04/05 03:12:14;;;;;;;13.73;8.73;;;;;;;3.23;62.80;99063.50;10421572;28;20072;-68
2021/04/05 03:17:17;;;;;;;11.50;8.75;;;;;;;3.88;61.39;99041.44;10402977;28;20464;-69
2021/04/05 03:22:19;;;;;;;14.90;9.70;;;;;;;3.67;61.65;99030.59;10403619;28;20137;-68
2021/04/05 03:27:20;;;;;;;17.75;9.90;;;;;;;3.34;62.80;99026.06;10421201;28;20042;-68
2021/04/05 03:32:23;;;;;;;11.95;10.73;;;;;;;3.38;62.82;99010.38;10387632;28;20046;-68
2021/04/05 03:37:27;;;;;;;16.33;9.73;;;;;;;3.34;62.87;99005.28;10420847;28;20073;-68
2021/04/05 03:42:40;;;;;;;19.38;10.20;;;;;;;3.46;61.22;98985.13;10402382;28;20124;-68
2021/04/05 03:48:01;;;;;;;14.45;8.63;;;;;;;3.40;62.24;98968.78;10419957;28;20052;-68
2021/04/05 03:53:21;;;;;;;26.77;9.70;;;;;;;3.26;62.02;98961.28;10418701;28;20051;-68
2021/04/05 03:58:26;;;;;;;16.17;10.55;;;;;;;3.36;62.41;98942.00;10418002;28;20133;-65
2021/04/05 04:03:43;;;;;;;15.25;9.73;;;;;;;3.27;62.40;98931.81;10418585;28;20089;-66
2021/04/05 04:08:47;;;;;;;26.05;10.63;;;;;;;3.26;63.04;98930.09;10400912;28;20046;-66
2021/04/05 04:13:48;;;;;;;16.60;9.93;;;;;;;3.19;63.18;98928.53;10400995;28;20151;-66
2021/04/05 04:18:51;;;;;;;19.23;10.40;;;;;;;3.16;63.97;98925.97;10418123;28;20046;-66
2021/04/05 04:23:53;;;;;;;20.60;10.18;;;;;;;3.50;63.19;98923.56;10418047;28;20049;-66
2021/04/05 04:28:54;;;;;;;23.52;9.43;;;;;;;3.58;62.90;98919.03;10418098;28;20053;-66
2021/04/05 04:33:55;;;;;;;15.52;9.85;;;;;;;3.63;62.94;98903.34;10417324;28;20428;-66
2021/04/05 04:38:56;;;;;;;16.75;10.40;;;;;;;3.46;63.28;98894.19;10417956;28;20045;-66
2021/04/05 04:44:03;;;;;;;16.23;10.40;;;;;;;3.36;63.16;98886.59;10399248;28;20053;-66
2021/04/05 04:49:06;;;;;;;15.15;10.40;;;;;;;3.49;63.29;98873.31;10417877;28;20080;-66
2021/04/05 04:54:10;;;;;;;13.02;8.57;;;;;;;3.63;62.91;98856.56;10417260;28;20053;-65
2021/04/05 04:59:12;;;;;;;15.88;9.00;;;;;;;3.71;61.57;98845.13;10417445;28;20049;-66
2021/04/05 05:04:19;;;;;;;14.70;9.23;;;;;;;3.68;61.22;98854.75;10416784;28;20049;-66
2021/04/05 05:09:21;;;;;;;10.25;8.48;;;;;;;3.70;61.90;98869.41;10422849;28;20068;-66
2021/04/05 05:14:23;;;;;;;13.43;8.63;;;;;;;3.65;61.94;98863.47;10424361;28;20041;-66
2021/04/05 05:19:25;;;;;;;13.55;8.45;;;;;;;4.09;60.20;98843.38;10424364;28;20053;-67
2021/04/05 05:24:30;;;;;;;17.10;8.07;;;;;;;4.33;59.63;98831.47;10424730;28;20474;-66
2021/04/05 05:29:32;;;;;;;13.43;8.15;;;;;;;4.34;59.48;98817.59;10407197;28;20041;-66
2021/04/05 05:34:34;;;;;;;15.70;8.82;;;;;;;4.59;58.67;98809.13;10423844;28;20049;-66
2021/04/05 05:39:35;;;;;;;18.73;8.38;;;;;;;4.52;58.73;98824.91;10422957;28;20034;-66
2021/04/05 05:44:42;;;;;;;13.40;9.50;;;;;;;4.36;59.36;98805.38;10423675;28;20444;-66
2021/04/05 05:49:46;;;;;;;12.20;8.90;;;;;;;5.00;55.68;98787.13;10424035;28;20049;-66
2021/04/05 05:55:13;;;;;;;13.93;9.20;;;;;;;6.29;51.36;98773.53;10423878;28;20041;-66
2021/04/05 06:00:23;;;;;;;12.73;8.02;;;;;;;6.99;49.91;98763.13;10423562;28;20064;-66
2021/04/05 06:05:37;;;;;;;13.93;8.98;;;;;;;7.30;50.08;98752.38;10423545;28;20444;-66
2021/04/05 06:10:56;;;;;;;17.40;8.48;;;;;;;7.61;48.42;98730.22;10421928;28;20045;-66
2021/04/05 06:15:57;;;;;;;13.25;8.45;;;;;;;7.73;48.28;98715.78;10423160;28;20207;-66
2021/04/05 06:21:15;;;;;;;11.50;8.60;;;;;;;8.06;47.58;98714.41;10422794;28;20045;-66
2021/04/05 06:26:41;;;;;;;17.08;8.18;;;;;;;8.13;48.13;98720.19;10423456;28;20045;-66
2021/04/05 06:32:15;;;;;;;10.30;8.43;;;;;;;8.54;46.67;98715.84;10422642;28;20225;-66
2021/04/05 06:37:23;;;;;;;13.57;9.65;;;;;;;8.71;46.11;98703.72;10422489;28;20060;-66
2021/04/05 06:42:36;;;;;;;15.18;9.45;;;;;;;8.73;46.63;98701.91;10422992;28;20492;-66
2021/04/05 06:47:54;;;;;;;16.38;9.40;;;;;;;8.78;46.39;98681.59;10422085;28;20099;-66
2021/04/05 06:53:14;;;;;;;11.60;8.88;;;;;;;8.76;46.95;98680.78;10421273;28;20041;-65
2021/04/05 06:58:23;;;;;;;13.82;9.18;;;;;;;8.90;46.17;98661.81;10420940;28;20056;-66
2021/04/05 07:03:40;;;;;;;15.90;9.60;;;;;;;8.95;45.25;98672.94;10403285;28;20045;-67
2021/04/05 07:09:01;;;;;;;;;;;;;;;9.08;45.26;98664.44;10403007;28;20045;-66
2021/04/05 07:14:40;;;;;;;14.77;8.90;;;;;;;9.33;44.68;98653.59;10419697;28;19975;-65
2021/04/05 07:19:44;;;;;;;14.85;8.63;;;;;;;9.42;44.51;98649.66;10420279;28;20125;-65
2021/04/05 07:24:54;;;;;;;12.85;7.93;;;;;;;9.58;44.92;98655.88;10403257;28;20057;-65
2021/04/05 07:30:08;;;;;;;11.75;8.05;;;;;;;9.65;44.01;98647.69;10420515;28;20044;-66
2021/04/05 07:35:18;;;;;;;12.40;8.68;;;;;;;9.56;43.78;98634.13;10403925;28;20128;-66
2021/04/05 07:40:42;;;;;;;13.90;8.20;;;;;;;9.55;44.21;98626.31;10419932;28;20041;-67
2021/04/05 07:46:20;;;;;;;14.18;7.72;;;;;;;9.63;44.49;98625.94;10401915;28;20084;-66
2021/04/05 07:51:36;;;;;;;13.63;8.05;;;;;;;9.72;44.33;98614.97;10419831;28;20034;-66
2021/04/05 07:56:44;;;;;;;12.60;8.15;;;;;;;9.76;45.18;98609.47;10419681;28;20414;-66
2021/04/05 08:01:55;;;;;;;17.42;8.20;;;;;;;9.81;44.31;98598.75;10416935;28;20083;-66
2021/04/05 08:07:38;;;;;;;12.88;7.57;;;;;;;9.61;44.98;98597.16;10417201;28;20089;-66
2021/04/05 08:12:52;;;;;;;8.88;7.25;;;;;;;9.70;45.26;98599.31;10418136;28;20044;-66
2021/04/05 08:18:32;;;;;;;11.93;7.22;;;;;;;9.62;45.38;98588.34;10417727;28;20045;-65
2021/04/05 08:23:53;;;;;;;8.30;7.50;;;;;;;9.75;45.35;98572.84;10409081;28;20121;-66
2021/04/05 08:29:21;;;;;;;10.00;7.80;;;;;;;10.05;44.49;98539.72;10418066;28;20049;-66
2021/04/05 08:34:34;;;;;;;11.15;7.55;;;;;;;10.16;44.56;98539.16;10417083;28;20099;-66
2021/04/05 08:40:14;;;;;;;13.93;7.75;;;;;;;9.93;44.99;98529.03;10417428;28;20037;-66
2021/04/05 08:45:25;;;;;;;13.25;8.55;;;;;;;10.02;45.90;98523.28;10407610;28;20083;-65
2021/04/05 08:50:29;;;;;;;12.52;7.65;;;;;;;10.00;45.64;98525.13;10425354;28;20495;-67
2021/04/05 08:55:32;;;;;;;11.32;8.43;;;;;;;10.33;45.88;98523.34;10416219;28;20049;-66
2021/04/05 09:00:38;;;;;;;11.15;8.00;;;;;;;10.35;45.29;98494.38;10425173;28;20128;-66
2021/04/05 09:05:45;;;;;;;11.85;8.80;;;;;;;10.39;45.07;98497.69;10424624;28;20046;-65
2021/04/05 09:10:51;;;;;;;14.23;7.82;;;;;;;10.40;45.62;98497.59;10425508;28;20084;-66
2021/04/05 09:16:30;;;;;;;13.77;8.23;;;;;;;10.20;45.80;98463.69;10425409;28;20454;-66
2021/04/05 09:22:09;;;;;;;10.40;7.88;;;;;;;10.31;46.36;98477.97;10417122;28;20103;-65
2021/04/05 09:27:51;;;;;;;14.80;9.13;;;;;;;10.41;46.56;98466.94;10407599;28;20050;-66
2021/04/05 09:33:14;;;;;;;11.48;8.45;;;;;;;10.37;46.57;98476.75;10424753;28;20041;-67
2021/04/05 09:38:22;;;;;;;16.08;8.95;;;;;;;10.57;46.80;98473.84;10424408;28;20045;-66
2021/04/05 09:43:29;;;;;;;15.80;9.38;;;;;;;10.23;47.89;98482.75;10424909;28;20506;-65
2021/04/05 09:48:36;;;;;;;;;;;;;;;10.17;47.82;98488.31;10424610;28;20076;-66
2021/04/05 09:53:47;;;;;;;17.60;9.38;;;;;;;10.14;48.63;98485.00;10415053;28;19947;-67
2021/04/05 09:58:56;;;;;;;10.50;8.98;;;;;;;10.08;48.01;98470.44;10421597;28;20041;-68
2021/04/05 10:04:03;;;;;;;12.55;9.48;;;;;;;9.85;48.47;98469.06;10424160;28;20120;-67
2021/04/05 10:09:09;;;;;;;11.25;9.43;;;;;;;9.83;49.48;98456.03;10423897;28;20132;-66
2021/04/05 10:14:14;;;;;;;13.90;11.00;;;;;;;9.84;48.83;98455.09;10423367;28;20049;-67
2021/04/05 10:19:17;;;;;;;13.05;10.27;;;;;;;9.69;48.89;98447.19;10409584;28;20407;-69
2021/04/05 10:24:22;;;;;;;14.27;9.93;;;;;;;9.45;49.45;98447.56;10408627;28;20141;-66
2021/04/05 10:29:28;;;;;;;14.70;9.35;;;;;;;9.42;50.09;98439.84;10407167;28;20057;-66
2021/04/05 10:34:34;;;;;;;11.25;9.43;;;;;;;9.40;52.30;98435.63;10406865;28;20091;-67
2021/04/05 10:39:36;;;;;;;14.68;9.93;;;;;;;9.00;54.33;98441.16;10427270;28;20041;-69
2021/04/05 10:44:43;;;;;;;11.38;10.13;;;;;;;8.37;55.71;98440.81;10411586;28;20136;-70
2021/04/05 10:49:47;;;;;;;14.75;10.02;;;;;;;8.16;58.46;98460.97;10409122;28;20056;-68
2021/04/05 10:54:53;;;;;;;16.70;10.52;;;;;;;7.77;60.11;98453.19;10425791;28;20045;-69
2021/04/05 11:00:00;;;;;;;16.73;10.90;;;;;;;7.56;61.37;98455.84;10425166;28;20041;-70
2021/04/05 11:05:15;;;;;;;17.20;10.98;;;;;;;7.39;63.19;98468.81;10425180;28;20053;-68
2021/04/05 11:10:18;;;;;;;11.35;10.20;;;;;;;7.29;62.63;98460.53;10424976;28;20072;-69
2021/04/05 11:15:21;;;;;;;15.32;12.38;;;;;;;7.23;64.41;98465.19;10425340;28;20095;-68
2021/04/05 11:20:29;;;;;;;20.60;14.00;;;;;;;6.98;65.08;98476.66;10426192;28;20041;-67
2021/04/05 11:25:42;;;;;;;21.52;14.95;;;;;;;6.80;67.01;98482.66;10400281;28;20057;-68
2021/04/05 11:30:47;;;;;;;16.13;14.48;;;;;;;6.66;67.98;98490.22;10423585;28;20052;-66
2021/04/05 11:35:51;;;;;;;15.65;12.35;;;;;;;6.43;68.69;98488.53;10423190;28;20045;-66
2021/04/05 11:41:02;;;;;;;13.68;12.48;;;;;;;6.35;69.11;98482.75;10423776;28;20049;-67
2021/04/05 11:46:08;;;;;;;13.60;12.35;;;;;;;6.46;69.34;98477.94;10406623;28;20046;-66
2021/04/05 11:51:12;;;;;;;15.75;12.13;;;;;;;6.58;69.63;98480.91;10425248;28;20037;-67
2021/04/05 11:56:14;;;;;;;14.88;12.52;;;;;;;6.45;69.56;98464.03;10425202;28;20056;-67
2021/04/05 12:01:21;;;;;;;12.00;10.80;;;;;;;6.23;69.41;98476.25;10424740;28;20495;-66
2021/04/05 12:06:24;;;;;;;;;;;;;;;6.31;69.24;98469.81;10408151;28;20052;-66
2021/04/05 12:11:39;;;;;;;11.50;10.52;;;;;;;6.22;69.40;98565.88;10424972;28;19968;-67
2021/04/05 12:16:49;;;;;;;3.58;2.10;;;;;;;4.03;70.45;98584.34;10407227;28;20060;-64
2021/04/05 12:21:53;;;;;;;0.95;0.73;;;;;;;3.56;70.91;98606.44;10425753;28;20112;-66
2021/04/05 12:26:57;;;;;;;0.70;0.50;;;;;;;3.12;72.02;98611.00;10425221;28;20148;-66
2021/04/05 12:32:01;;;;;;;0.63;0.50;;;;;;;2.89;71.80;98621.94;10424771;28;20072;-66
2021/04/05 12:37:12;;;;;;;1.73;0.80;;;;;;;2.78;73.41;98635.16;10423600;28;20452;-65
2021/04/05 12:42:14;;;;;;;1.50;0.50;;;;;;;2.58;72.90;98659.88;10424537;28;20462;-67
2021/04/05 12:47:16;;;;;;;1.52;0.68;;;;;;;2.83;73.35;98661.00;10424153;28;20155;-66
2021/04/05 12:52:20;;;;;;;0.98;0.60;;;;;;;3.01;72.86;98660.63;10424357;28;20045;-66
2021/04/05 12:57:28;;;;;;;1.25;0.52;;;;;;;2.97;72.32;98673.69;10404622;28;20055;-65
2021/04/05 13:02:33;;;;;;;0.85;0.60;;;;;;;3.00;72.02;98658.88;10419368;28;20041;-65
2021/04/05 13:07:52;;;;;;;1.55;0.70;;;;;;;2.99;72.20;98653.72;10421134;28;20074;-65
2021/04/05 13:13:01;;;;;;;0.60;0.40;;;;;;;3.14;72.21;98640.38;10420338;28;20068;-64
2021/04/05 13:18:30;;;;;;;0.98;0.40;;;;;;;3.33;70.17;98640.81;10420208;28;20061;-66
2021/04/05 13:23:39;;;;;;;2.08;0.60;;;;;;;3.36;70.89;98632.91;10402128;28;20134;-65
2021/04/05 13:28:42;;;;;;;0.52;0.50;;;;;;;3.66;70.49;98633.88;10421594;28;20054;-66
2021/04/05 13:33:46;;;;;;;0.77;0.55;;;;;;;3.71;69.00;98621.63;10408923;28;20049;-66
2021/04/05 13:38:57;;;;;;;1.30;0.60;;;;;;;3.73;67.58;98619.00;10425709;28;20044;-65
2021/04/05 13:44:02;;;;;;;0.90;0.70;;;;;;;3.78;66.96;98635.31;10427448;28;20038;-66
2021/04/05 13:49:14;;;;;;;0.75;0.60;;;;;;;3.86;66.75;98633.38;10409028;28;20072;-66
2021/04/05 13:54:22;;;;;;;1.45;0.88;;;;;;;3.87;66.30;98629.88;10426342;28;20049;-66
2021/04/05 13:59:25;;;;;;;1.10;1.00;;;;;;;3.90;66.86;98634.13;10410061;28;20056;-65
2021/04/05 14:04:29;;;;;;;1.35;1.25;;;;;;;3.83;66.47;98632.59;10429543;28;20107;-67
2021/04/05 14:09:32;;;;;;;1.58;1.48;;;;;;;3.50;67.66;98654.22;10427261;28;20072;-65
2021/04/05 14:14:35;;;;;;;1.48;1.38;;;;;;;3.51;69.22;98658.53;10426773;28;20045;-66
2021/04/05 14:19:52;;;;;;;2.33;1.90;;;;;;;3.36;69.59;98653.69;10426833;28;20128;-65
2021/04/05 14:24:53;;;;;;;2.10;1.73;;;;;;;3.18;70.74;98677.50;10427041;28;20057;-65
2021/04/05 14:30:06;;;;;;;2.50;2.20;;;;;;;2.86;72.52;98712.84;10408433;28;20060;-65
2021/04/05 14:35:11;;;;;;;2.67;1.50;;;;;;;2.41;72.31;98714.66;10425912;28;20568;-65
2021/04/05 14:40:16;;;;;;;0.98;0.88;;;;;;;2.41;71.08;98722.44;10426948;28;20045;-66
2021/04/05 14:45:17;;;;;;;1.10;1.00;;;;;;;2.50;71.80;98730.91;10409051;28;20053;-65
2021/04/05 14:50:26;;;;;;;1.20;0.80;;;;;;;2.63;70.52;98717.69;10407047;28;20049;-65
2021/04/05 14:55:35;;;;;;;1.63;0.90;;;;;;;2.69;71.47;98731.38;10425150;28;20107;-66
2021/04/05 15:00:37;;;;;;;1.55;0.80;;;;;;;2.29;70.63;98780.59;10439930;28;20045;-65
2021/04/05 15:05:45;;;;;;;2.15;0.60;;;;;;;1.52;72.05;98779.28;10424642;28;20061;-65
2021/04/05 15:10:52;;;;;;;1.05;0.43;;;;;;;1.21;72.40;98796.16;10424305;28;20488;-65
2021/04/05 15:15:57;;;;;;;0.80;0.52;;;;;;;1.03;73.47;98830.06;10396962;28;20128;-65
2021/04/05 15:20:59;;;;;;;0.85;0.80;;;;;;;0.73;73.47;98837.28;10423911;28;20376;-66
2021/04/05 15:26:03;;;;;;;0.85;0.80;;;;;;;0.63;73.61;98836.56;10408339;28;20041;-63
2021/04/05 15:31:06;;;;;;;2.03;1.00;;;;;;;0.53;73.94;98849.56;10405800;28;20095;-65
2021/04/05 15:36:08;;;;;;;2.33;0.80;;;;;;;0.43;73.50;98847.09;10423681;28;20450;-64
2021/04/05 15:41:14;;;;;;;0.63;0.55;;;;;;;0.46;73.08;98843.63;10424892;28;20044;-65
2021/04/05 15:46:28;;;;;;;1.05;0.95;;;;;;;0.61;72.05;98845.19;10407752;28;20033;-66
2021/04/05 15:51:41;;;;;;;1.90;0.47;;;;;;;0.81;66.18;98838.06;10405043;28;20549;-65
2021/04/05 15:56:51;;;;;;;2.05;0.57;;;;;;;1.06;66.15;98835.16;10423460;28;20080;-65
2021/04/05 16:01:57;;;;;;;1.13;0.65;;;;;;;1.18;64.09;98850.56;10422058;28;20052;-65
2021/04/05 16:07:07;;;;;;;1.17;0.30;;;;;;;1.22;65.14;98849.63;10423411;28;20530;-65
2021/04/05 16:12:16;;;;;;;1.60;0.50;;;;;;;1.26;64.87;98853.91;10423001;28;20043;-66
2021/04/05 16:17:27;;;;;;;0.95;0.50;;;;;;;1.32;64.32;98855.53;10409716;28;20545;-66
2021/04/05 16:22:33;;;;;;;1.75;0.50;;;;;;;1.27;61.36;98874.56;10425988;28;20067;-67
2021/04/05 16:27:37;;;;;;;1.92;0.80;;;;;;;1.23;59.04;98859.97;10425627;28;20043;-66
2021/04/05 16:32:45;;;;;;;2.05;0.60;;;;;;;1.13;59.15;98867.88;10406130;28;20053;-67
2021/04/05 16:37:47;;;;;;;3.75;0.70;;;;;;;1.19;60.26;98879.00;10403636;28;20049;-66
2021/04/05 16:43:22;;;;;;;2.83;0.70;;;;;;;1.19;59.87;98891.94;10418638;28;20038;-68
2021/04/05 16:48:24;;;;;;;3.85;0.85;;;;;;;1.14;59.49;98906.66;10400487;28;20048;-65
2021/04/05 16:53:27;;;;;;;2.25;0.70;;;;;;;1.17;61.40;98900.59;10420128;28;20064;-66
2021/04/05 16:58:31;;;;;;;4.60;0.60;;;;;;;1.04;61.60;98904.22;10421342;28;20041;-66
2021/04/05 17:03:44;;;;;;;1.48;0.73;;;;;;;1.12;61.24;98913.59;10407182;28;20037;-67
2021/04/05 17:08:47;;;;;;;3.35;0.85;;;;;;;1.08;62.20;98909.34;10431034;28;20056;-66
2021/04/05 17:13:57;;;;;;;1.23;0.60;;;;;;;1.04;62.23;98914.56;10431570;28;20049;-64
2021/04/05 17:19:00;;;;;;;1.83;0.93;;;;;;;1.00;62.91;98918.91;10431417;28;20049;-66
2021/04/05 17:24:04;;;;;;;1.85;0.70;;;;;;;0.94;62.31;98931.94;10431281;28;20041;-66
2021/04/05 17:29:26;;;;;;;3.38;0.70;;;;;;;0.93;62.65;98936.25;10430141;28;20100;-67
2021/04/05 17:34:36;;;;;;;2.17;0.73;;;;;;;1.00;62.79;98943.06;10430658;28;20037;-65
2021/04/05 17:39:40;;;;;;;2.10;0.85;;;;;;;0.89;63.58;98955.25;10430314;28;20069;-67
2021/04/05 17:44:47;;;;;;;3.75;0.65;;;;;;;0.87;63.11;98959.59;10430125;28;20068;-66
2021/04/05 17:50:01;;;;;;;4.28;1.08;;;;;;;0.84;63.55;98967.41;10432672;28;20050;-68
2021/04/05 17:55:15;;;;;;;2.65;0.70;;;;;;;0.84;63.08;98985.50;10433765;28;20104;-67
2021/04/05 18:00:50;;;;;;;2.70;0.90;;;;;;;0.82;63.76;98994.13;10431722;28;20064;-67
2021/04/05 18:05:57;;;;;;;2.28;1.00;;;;;;;0.81;62.56;99001.03;10414269;28;20049;-66
2021/04/05 18:11:24;;;;;;;3.17;1.00;;;;;;;0.87;62.96;99002.72;10432085;28;20041;-67
2021/04/05 18:16:36;;;;;;;3.45;1.23;;;;;;;0.84;61.99;99021.72;10431696;28;20064;-67
2021/04/05 18:21:37;;;;;;;2.78;1.42;;;;;;;0.90;62.11;99016.47;10413856;28;20049;-67
2021/04/05 18:26:58;;;;;;;4.85;1.17;;;;;;;0.84;62.44;99016.56;10432239;28;20163;-67
2021/04/05 18:32:15;;;;;;;2.53;1.10;;;;;;;0.94;62.00;99006.97;10429894;28;20072;-67
2021/04/05 18:37:19;;;;;;;4.22;0.90;;;;;;;0.70;63.03;99024.41;10431238;28;20048;-68
2021/04/05 18:42:24;;;;;;;3.05;1.20;;;;;;;0.70;62.66;99028.72;10430440;28;20450;-68
2021/04/05 18:47:34;;;;;;;2.70;1.20;;;;;;;0.75;61.47;99029.53;10431531;28;20060;-68
2021/04/05 18:52:35;;;;;;;5.60;1.10;;;;;;;0.64;62.05;99050.31;10431351;28;20065;-67
2021/04/05 18:57:59;;;;;;;6.57;1.88;;;;;;;0.56;61.59;99061.59;10432208;28;20060;-68
2021/04/05 19:03:16;;;;;;;4.03;1.25;;;;;;;0.60;61.86;99061.56;10430058;28;20042;-67
2021/04/05 19:08:31;;;;;;;;;;;;;;;0.55;62.32;99059.88;10431886;28;20041;-68
2021/04/05 19:13:59;;;;;;;2.45;1.20;;;;;;;0.33;64.06;99062.59;10431245;28;19927;-66
2021/04/05 19:19:13;;;;;;;4.22;1.38;;;;;;;0.40;64.24;99069.47;10431499;28;20072;-68
2021/04/05 19:24:48;;;;;;;7.20;2.30;;;;;;;0.32;64.27;99068.66;10412893;28;20033;-68
2021/04/05 19:30:07;;;;;;;5.18;1.30;;;;;;;0.30;64.09;99077.25;10430231;28;20049;-69
2021/04/05 19:35:32;;;;;;;4.32;1.08;;;;;;;0.33;63.29;99078.13;10429685;28;20048;-68
2021/04/05 19:40:48;;;;;;;5.88;1.63;;;;;;;0.30;62.49;99075.53;10429983;28;20048;-67
2021/04/05 19:45:55;;;;;;;3.13;1.13;;;;;;;0.26;62.11;99091.94;10430378;28;20101;-69
2021/04/05 19:51:15;;;;;;;5.53;1.30;;;;;;;0.28;62.24;99097.97;10431522;28;20380;-69
2021/04/05 19:56:37;;;;;;;4.45;1.23;;;;;;;0.13;62.85;99103.19;10428234;28;20037;-68
2021/04/05 20:01:54;;;;;;;3.28;1.08;;;;;;;0.17;62.38;99105.75;10407894;28;20419;-68
2021/04/05 20:07:10;;;;;;;2.85;1.23;;;;;;;0.06;62.96;99104.97;10409033;28;20147;-69
2021/04/05 20:12:24;;;;;;;4.63;1.07;;;;;;;0.12;62.21;99114.41;10426511;28;20505;-69
2021/04/05 20:17:25;;;;;;;3.33;0.93;;;;;;;0.13;60.55;99108.38;10426816;28;20128;-69
2021/04/05 20:22:42;;;;;;;2.78;1.00;;;;;;;0.09;61.20;99115.28;10406768;28;20044;-68
2021/04/05 20:28:33;;;;;;;2.58;1.50;;;;;;;0.12;61.36;99112.69;10423677;28;20394;-68
2021/04/05 20:33:53;;;;;;;3.05;1.17;;;;;;;-0.03;63.06;99097.25;10338211;28;20053;-69
2021/04/05 20:39:01;;;;;;;3.03;1.30;;;;;;;-0.07;63.92;99108.47;10343462;28;20085;-69
2021/04/05 20:44:12;;;;;;;3.50;1.13;;;;;;;-0.18;64.66;99116.22;10347439;28;20058;-68
2021/04/05 20:49:24;;;;;;;3.95;1.10;;;;;;;-0.21;64.90;99128.31;10347871;28;20173;-67
2021/04/05 20:54:30;;;;;;;3.25;1.00;;;;;;;-0.29;64.97;99129.19;10346752;28;20515;-68
2021/04/05 21:00:15;;;;;;;2.72;1.00;;;;;;;-0.34;64.63;99125.75;10346125;28;20054;-68
2021/04/05 21:05:22;;;;;;;2.97;1.23;;;;;;;-0.33;64.25;99127.47;10414627;28;20115;-69
2021/04/05 21:10:26;;;;;;;2.63;1.20;;;;;;;-0.49;64.83;99137.81;10431996;28;20064;-69
2021/04/05 21:15:33;;;;;;;5.10;1.45;;;;;;;-0.37;63.86;99141.25;10432275;28;20287;-69
2021/04/05 21:21:19;;;;;;;3.58;1.05;;;;;;;-0.43;64.07;99146.44;10429173;28;20487;-68
2021/04/05 21:26:22;;;;;;;3.92;0.90;;;;;;;-0.42;64.01;99153.31;10422746;28;20061;-66
2021/04/05 21:31:42;;;;;;;2.83;0.90;;;;;;;-0.43;64.34;99156.78;10424786;28;20037;-68
2021/04/05 21:36:49;;;;;;;3.20;0.98;;;;;;;-0.49;64.46;99166.22;10423699;28;20049;-67
2021/04/05 21:42:13;;;;;;;2.47;0.80;;;;;;;-0.53;64.67;99173.13;10424553;28;20041;-68
2021/04/05 21:47:15;;;;;;;2.92;0.90;;;;;;;-0.61;64.41;99162.81;10425600;28;20450;-68
2021/04/05 21:52:29;;;;;;;2.47;0.98;;;;;;;-0.59;63.99;99171.41;10424844;28;20092;-68
2021/04/05 21:57:35;;;;;;;3.25;1.30;;;;;;;-0.73;64.72;99178.28;10419054;28;20419;-67
2021/04/05 22:02:40;;;;;;;4.95;1.50;;;;;;;-0.69;64.20;99174.00;10432106;28;20113;-68
2021/04/05 22:07:42;;;;;;;3.85;0.90;;;;;;;-0.61;63.34;99185.19;10432481;28;20052;-67
2021/04/05 22:12:44;;;;;;;9.68;1.00;;;;;;;-0.65;62.99;99189.47;10412552;28;20052;-67
2021/04/05 22:17:46;;;;;;;3.35;0.88;;;;;;;-0.56;62.62;99194.63;10430244;28;20053;-67
2021/04/05 22:22:59;;;;;;;2.25;0.63;;;;;;;-0.56;62.30;99197.22;10431175;28;20045;-68
2021/04/05 22:28:07;;;;;;;2.38;0.93;;;;;;;-0.53;62.22;99196.38;10409555;28;20084;-68
2021/04/05 22:33:08;;;;;;;2.92;0.80;;;;;;;-0.53;62.25;99210.13;10411388;28;20049;-67
2021/04/05 22:38:12;;;;;;;2.40;0.98;;;;;;;-0.65;62.87;99217.03;10426164;28;20096;-68
2021/04/05 22:43:20;;;;;;;3.38;0.90;;;;;;;-0.59;62.16;99209.25;10425204;28;20037;-68
2021/04/05 22:48:22;;;;;;;2.90;0.70;;;;;;;-0.70;62.84;99214.44;10425427;28;20043;-68
2021/04/05 22:53:28;;;;;;;5.97;1.20;;;;;;;-0.75;63.17;99223.91;10424482;28;20112;-67
2021/04/05 22:58:34;;;;;;;4.45;1.10;;;;;;;-0.74;62.63;99219.59;10424031;28;20046;-68
2021/04/05 23:03:35;;;;;;;3.35;1.13;;;;;;;-0.77;62.47;99225.59;10423512;28;20125;-67
2021/04/05 23:08:52;;;;;;;2.80;0.70;;;;;;;-0.71;62.29;99229.91;10406240;28;20049;-67
2021/04/05 23:13:58;;;;;;;4.95;0.90;;;;;;;-0.79;62.06;99232.50;10425344;28;20404;-67
2021/04/05 23:19:04;;;;;;;1.42;0.70;;;;;;;-0.76;62.06;99241.06;10424843;28;20088;-67
2021/04/05 23:24:29;;;;;;;3.30;0.90;;;;;;;-0.88;62.69;99248.81;10422987;28;20503;-67
2021/04/05 23:29:39;;;;;;;3.13;0.98;;;;;;;-0.89;62.69;99253.97;10417981;28;20073;-67
2021/04/05 23:34:48;;;;;;;3.05;1.20;;;;;;;-0.79;61.83;99250.56;10423124;28;20041;-67
2021/04/05 23:40:25;;;;;;;2.53;0.77;;;;;;;-0.90;61.75;99247.94;10421479;28;20075;-67
2021/04/05 23:45:34;;;;;;;3.15;0.52;;;;;;;-0.96;62.35;99270.31;10403104;28;20037;-67
2021/04/05 23:50:36;;;;;;;2.05;0.80;;;;;;;-1.05;62.57;99263.41;10422855;28;20151;-68
2021/04/05 23:55:39;;;;;;;3.38;0.85;;;;;;;-0.99;62.12;99273.72;10421822;28;20091;-68
